sensor_id;sensor_type;location;lat;lon;timestamp;pressure;altitude;pressure_sealevel;temperature;humidity
80566;BME280;69915;54.862;10.730;2023-05-15T00:00:59;101333.84;;;10.82;80.24
80566;BME280;69915;54.862;10.730;2023-05-15T00:03:25;101336.06;;;10.85;78.69
80566;BME280;69915;54.862;10.730;2023-05-15T00:05:51;101332.75;;;10.88;79.97
80566;BME280;69915;54.862;10.730;2023-05-15T00:08:17;101326.94;;;10.95;79.63
80566;BME280;69915;54.862;10.730;2023-05-15T00:10:42;101319.31;;;10.97;79.59
80566;BME280;69915;54.862;10.730;2023-05-15T00:13:08;101320.13;;;10.92;79.40
80566;BME280;69915;54.862;10.730;2023-05-15T00:15:33;101310.31;;;10.86;79.49
80566;BME280;69915;54.862;10.730;2023-05-15T00:17:59;101298.03;;;10.84;79.32
80566;BME280;69915;54.862;10.730;2023-05-15T00:20:24;101311.72;;;10.79;79.72
80566;BME280;69915;54.862;10.730;2023-05-15T00:22:50;101303.81;;;10.67;80.05
80566;BME280;69915;54.862;10.730;2023-05-15T00:25:15;101316.69;;;10.62;80.92
80566;BME280;69915;54.862;10.730;2023-05-15T00:27:41;101307.38;;;10.68;79.82
80566;BME280;69915;54.862;10.730;2023-05-15T00:30:07;101293.44;;;10.69;79.46
80566;BME280;69915;54.862;10.730;2023-05-15T00:32:33;101304.69;;;10.63;79.78
80566;BME280;69915;54.862;10.730;2023-05-15T00:34:58;101300.06;;;10.53;80.58
80566;BME280;69915;54.862;10.730;2023-05-15T00:37:24;101303.66;;;10.38;80.27
80566;BME280;69915;54.862;10.730;2023-05-15T00:39:49;101308.00;;;10.50;80.70
80566;BME280;69915;54.862;10.730;2023-05-15T00:42:16;101325.47;;;10.64;80.79
80566;BME280;69915;54.862;10.730;2023-05-15T00:44:43;101320.16;;;10.87;80.47
80566;BME280;69915;54.862;10.730;2023-05-15T00:47:09;101313.25;;;11.00;80.13
80566;BME280;69915;54.862;10.730;2023-05-15T00:49:36;101316.47;;;11.12;79.41
80566;BME280;69915;54.862;10.730;2023-05-15T00:52:02;101316.97;;;11.19;79.91
80566;BME280;69915;54.862;10.730;2023-05-15T00:54:28;101309.88;;;11.18;80.19
80566;BME280;69915;54.862;10.730;2023-05-15T00:56:55;101320.19;;;11.31;80.11
80566;BME280;69915;54.862;10.730;2023-05-15T00:59:25;101321.25;;;11.35;80.29
80566;BME280;69915;54.862;10.730;2023-05-15T01:01:52;101314.38;;;11.38;80.69
80566;BME280;69915;54.862;10.730;2023-05-15T01:04:17;101297.16;;;11.37;81.36
80566;BME280;69915;54.862;10.730;2023-05-15T01:06:42;101293.38;;;11.28;81.79
80566;BME280;69915;54.862;10.730;2023-05-15T01:09:09;101304.97;;;11.15;82.79
80566;BME280;69915;54.862;10.730;2023-05-15T01:11:37;101300.06;;;11.12;82.82
80566;BME280;69915;54.862;10.730;2023-05-15T01:14:06;101287.44;;;11.16;82.40
80566;BME280;69915;54.862;10.730;2023-05-15T01:16:32;101299.19;;;11.22;81.58
80566;BME280;69915;54.862;10.730;2023-05-15T01:18:58;101293.72;;;11.22;81.71
80566;BME280;69915;54.862;10.730;2023-05-15T01:30:07;101294.69;;;10.92;82.72
80566;BME280;69915;54.862;10.730;2023-05-15T01:33:07;101284.34;;;10.84;82.08
80566;BME280;69915;54.862;10.730;2023-05-15T01:35:43;101281.03;;;10.87;81.21
80566;BME280;69915;54.862;10.730;2023-05-15T01:38:29;101280.75;;;10.93;81.85
80566;BME280;69915;54.862;10.730;2023-05-15T01:41:04;101273.38;;;10.89;81.43
80566;BME280;69915;54.862;10.730;2023-05-15T01:43:34;101278.09;;;10.78;80.64
80566;BME280;69915;54.862;10.730;2023-05-15T01:46:04;101285.44;;;10.83;80.85
80566;BME280;69915;54.862;10.730;2023-05-15T01:48:32;101266.28;;;10.88;81.12
80566;BME280;69915;54.862;10.730;2023-05-15T01:51:01;101265.16;;;10.94;80.58
80566;BME280;69915;54.862;10.730;2023-05-15T01:53:31;101260.19;;;10.96;80.60
80566;BME280;69915;54.862;10.730;2023-05-15T01:55:58;101255.03;;;10.95;81.18
80566;BME280;69915;54.862;10.730;2023-05-15T01:58:25;101260.81;;;10.88;81.18
80566;BME280;69915;54.862;10.730;2023-05-15T02:00:51;101265.41;;;10.92;81.88
80566;BME280;69915;54.862;10.730;2023-05-15T02:03:18;101260.72;;;10.98;81.96
80566;BME280;69915;54.862;10.730;2023-05-15T02:05:45;101256.66;;;10.96;82.69
80566;BME280;69915;54.862;10.730;2023-05-15T02:08:11;101254.78;;;10.91;83.14
80566;BME280;69915;54.862;10.730;2023-05-15T02:10:37;101261.38;;;10.85;83.22
80566;BME280;69915;54.862;10.730;2023-05-15T02:13:07;101256.38;;;10.92;83.42
80566;BME280;69915;54.862;10.730;2023-05-15T02:15:34;101256.63;;;11.01;82.90
80566;BME280;69915;54.862;10.730;2023-05-15T02:18:00;101250.03;;;11.07;82.75
80566;BME280;69915;54.862;10.730;2023-05-15T02:20:26;101244.25;;;11.08;82.74
80566;BME280;69915;54.862;10.730;2023-05-15T02:22:51;101252.75;;;11.07;83.06
80566;BME280;69915;54.862;10.730;2023-05-15T02:25:17;101248.66;;;11.04;83.11
80566;BME280;69915;54.862;10.730;2023-05-15T02:27:59;101241.81;;;11.07;83.29
80566;BME280;69915;54.862;10.730;2023-05-15T02:36:03;101234.66;;;11.11;81.98
80566;BME280;69915;54.862;10.730;2023-05-15T02:38:34;101233.03;;;11.10;82.16
80566;BME280;69915;54.862;10.730;2023-05-15T02:41:02;101227.31;;;11.01;82.06
80566;BME280;69915;54.862;10.730;2023-05-15T02:43:30;101229.31;;;10.90;82.61
80566;BME280;69915;54.862;10.730;2023-05-15T02:45:57;101234.03;;;10.85;82.62
80566;BME280;69915;54.862;10.730;2023-05-15T02:48:24;101222.59;;;10.68;82.58
80566;BME280;69915;54.862;10.730;2023-05-15T02:50:51;101217.22;;;10.53;83.58
80566;BME280;69915;54.862;10.730;2023-05-15T02:53:17;101210.13;;;10.47;84.41
80566;BME280;69915;54.862;10.730;2023-05-15T02:55:43;101207.78;;;10.30;84.03
80566;BME280;69915;54.862;10.730;2023-05-15T02:58:08;101211.91;;;10.17;85.02
80566;BME280;69915;54.862;10.730;2023-05-15T03:00:34;101205.63;;;10.12;86.00
80566;BME280;69915;54.862;10.730;2023-05-15T03:02:59;101207.53;;;10.11;86.45
80566;BME280;69915;54.862;10.730;2023-05-15T03:05:25;101210.25;;;10.11;86.76
80566;BME280;69915;54.862;10.730;2023-05-15T03:07:50;101202.63;;;10.08;86.95
80566;BME280;69915;54.862;10.730;2023-05-15T03:10:16;101193.03;;;10.16;87.43
80566;BME280;69915;54.862;10.730;2023-05-15T03:12:42;101190.31;;;10.16;86.99
80566;BME280;69915;54.862;10.730;2023-05-15T03:15:08;101188.66;;;10.20;85.99
80566;BME280;69915;54.862;10.730;2023-05-15T03:17:33;101187.03;;;10.19;83.94
80566;BME280;69915;54.862;10.730;2023-05-15T03:19:59;101190.06;;;10.17;82.01
80566;BME280;69915;54.862;10.730;2023-05-15T03:22:24;101188.66;;;10.20;81.95
80566;BME280;69915;54.862;10.730;2023-05-15T03:24:50;101195.50;;;10.22;80.12
80566;BME280;69915;54.862;10.730;2023-05-15T03:27:16;101180.75;;;10.13;77.15
80566;BME280;69915;54.862;10.730;2023-05-15T03:29:41;101183.00;;;9.96;77.40
80566;BME280;69915;54.862;10.730;2023-05-15T03:32:07;101186.28;;;9.83;79.39
80566;BME280;69915;54.862;10.730;2023-05-15T03:34:33;101181.06;;;9.92;79.10
80566;BME280;69915;54.862;10.730;2023-05-15T03:36:58;101180.13;;;10.31;82.29
80566;BME280;69915;54.862;10.730;2023-05-15T03:39:24;101175.75;;;10.84;80.23
80566;BME280;69915;54.862;10.730;2023-05-15T03:41:50;101182.66;;;11.44;75.76
80566;BME280;69915;54.862;10.730;2023-05-15T03:44:16;101167.91;;;11.98;73.67
80566;BME280;69915;54.862;10.730;2023-05-15T03:46:41;101156.97;;;12.78;72.38
80566;BME280;69915;54.862;10.730;2023-05-15T03:49:07;101157.22;;;13.32;71.39
80566;BME280;69915;54.862;10.730;2023-05-15T03:51:32;101160.56;;;13.89;69.74
80566;BME280;69915;54.862;10.730;2023-05-15T03:53:57;101137.66;;;14.34;68.45
80566;BME280;69915;54.862;10.730;2023-05-15T03:56:23;101147.63;;;14.16;67.70
80566;BME280;69915;54.862;10.730;2023-05-15T03:58:49;101144.38;;;13.74;69.49
80566;BME280;69915;54.862;10.730;2023-05-15T04:01:14;101156.28;;;13.83;69.90
80566;BME280;69915;54.862;10.730;2023-05-15T04:03:40;101146.91;;;14.52;67.84
80566;BME280;69915;54.862;10.730;2023-05-15T04:06:05;101140.78;;;15.13;65.40
80566;BME280;69915;54.862;10.730;2023-05-15T04:08:31;101142.50;;;15.84;63.61
80566;BME280;69915;54.862;10.730;2023-05-15T04:10:56;101136.66;;;16.33;61.82
80566;BME280;69915;54.862;10.730;2023-05-15T04:13:22;101136.09;;;16.62;60.67
80566;BME280;69915;54.862;10.730;2023-05-15T04:15:47;101129.44;;;17.06;60.03
80566;BME280;69915;54.862;10.730;2023-05-15T04:18:13;101113.38;;;17.46;58.66
80566;BME280;69915;54.862;10.730;2023-05-15T04:20:38;101123.91;;;17.78;56.44
80566;BME280;69915;54.862;10.730;2023-05-15T04:23:04;101124.69;;;17.15;58.16
80566;BME280;69915;54.862;10.730;2023-05-15T04:25:30;101123.09;;;16.80;59.42
80566;BME280;69915;54.862;10.730;2023-05-15T04:27:55;101119.38;;;16.84;59.57
80566;BME280;69915;54.862;10.730;2023-05-15T04:30:21;101118.19;;;16.94;58.74
80566;BME280;69915;54.862;10.730;2023-05-15T04:32:46;101116.91;;;16.74;59.88
80566;BME280;69915;54.862;10.730;2023-05-15T04:35:12;101107.31;;;16.55;60.57
80566;BME280;69915;54.862;10.730;2023-05-15T04:37:39;101116.66;;;16.11;62.25
80566;BME280;69915;54.862;10.730;2023-05-15T04:40:05;101119.84;;;15.96;62.53
80566;BME280;69915;54.862;10.730;2023-05-15T04:42:32;101111.25;;;15.97;62.56
80566;BME280;69915;54.862;10.730;2023-05-15T04:44:58;101122.59;;;15.96;62.84
80566;BME280;69915;54.862;10.730;2023-05-15T04:47:24;101123.69;;;15.77;62.73
80566;BME280;69915;54.862;10.730;2023-05-15T04:49:49;101127.34;;;15.64;63.03
80566;BME280;69915;54.862;10.730;2023-05-15T04:52:15;101116.72;;;15.89;63.18
80566;BME280;69915;54.862;10.730;2023-05-15T04:54:41;101113.69;;;16.72;61.81
80566;BME280;69915;54.862;10.730;2023-05-15T04:57:07;101114.72;;;17.86;58.94
80566;BME280;69915;54.862;10.730;2023-05-15T04:59:32;101108.41;;;18.86;56.16
80566;BME280;69915;54.862;10.730;2023-05-15T05:01:59;101107.13;;;20.70;52.18
80566;BME280;69915;54.862;10.730;2023-05-15T05:04:24;101100.72;;;22.15;49.07
80566;BME280;69915;54.862;10.730;2023-05-15T05:06:50;101092.69;;;23.41;46.37
80566;BME280;69915;54.862;10.730;2023-05-15T05:09:18;101096.09;;;24.25;42.72
80566;BME280;69915;54.862;10.730;2023-05-15T05:11:44;101091.34;;;24.56;41.84
80566;BME280;69915;54.862;10.730;2023-05-15T05:14:10;101076.94;;;24.83;41.39
80566;BME280;69915;54.862;10.730;2023-05-15T05:16:36;101081.38;;;25.21;41.31
80566;BME280;69915;54.862;10.730;2023-05-15T05:19:01;101090.34;;;25.37;41.19
80566;BME280;69915;54.862;10.730;2023-05-15T05:21:27;101078.63;;;25.62;40.82
80566;BME280;69915;54.862;10.730;2023-05-15T05:23:52;101078.25;;;26.14;38.34
80566;BME280;69915;54.862;10.730;2023-05-15T05:26:18;101067.59;;;26.37;37.24
80566;BME280;69915;54.862;10.730;2023-05-15T05:28:43;101069.91;;;25.33;39.79
80566;BME280;69915;54.862;10.730;2023-05-15T05:31:09;101073.16;;;25.02;41.38
80566;BME280;69915;54.862;10.730;2023-05-15T05:33:35;101070.31;;;24.95;40.87
80566;BME280;69915;54.862;10.730;2023-05-15T05:36:00;101080.84;;;25.89;39.84
80566;BME280;69915;54.862;10.730;2023-05-15T05:38:26;101085.25;;;26.41;39.75
80566;BME280;69915;54.862;10.730;2023-05-15T05:40:52;101084.41;;;27.24;38.01
80566;BME280;69915;54.862;10.730;2023-05-15T05:43:17;101084.88;;;27.58;36.92
80566;BME280;69915;54.862;10.730;2023-05-15T05:45:43;101087.63;;;27.29;38.99
80566;BME280;69915;54.862;10.730;2023-05-15T05:48:08;101081.19;;;26.35;39.25
80566;BME280;69915;54.862;10.730;2023-05-15T05:50:34;101096.59;;;25.24;39.66
80566;BME280;69915;54.862;10.730;2023-05-15T05:52:59;101095.94;;;23.92;43.01
80566;BME280;69915;54.862;10.730;2023-05-15T05:55:25;101087.19;;;23.06;45.63
80566;BME280;69915;54.862;10.730;2023-05-15T05:57:50;101086.53;;;22.94;44.57
80566;BME280;69915;54.862;10.730;2023-05-15T06:00:16;101076.16;;;22.71;46.13
80566;BME280;69915;54.862;10.730;2023-05-15T06:02:42;101087.50;;;22.28;46.89
80566;BME280;69915;54.862;10.730;2023-05-15T06:05:08;101089.34;;;22.40;47.23
80566;BME280;69915;54.862;10.730;2023-05-15T06:07:33;101083.03;;;22.08;47.30
80566;BME280;69915;54.862;10.730;2023-05-15T06:09:59;101098.91;;;21.45;47.75
80566;BME280;69915;54.862;10.730;2023-05-15T06:12:25;101092.06;;;20.71;48.81
80566;BME280;69915;54.862;10.730;2023-05-15T06:14:52;101092.03;;;19.71;50.92
80566;BME280;69915;54.862;10.730;2023-05-15T06:17:17;101098.94;;;19.08;51.82
80566;BME280;69915;54.862;10.730;2023-05-15T06:19:43;101099.16;;;18.82;53.49
80566;BME280;69915;54.862;10.730;2023-05-15T06:22:08;101092.25;;;18.46;53.88
80566;BME280;69915;54.862;10.730;2023-05-15T06:24:34;101095.84;;;18.18;56.24
80566;BME280;69915;54.862;10.730;2023-05-15T06:26:59;101086.59;;;17.84;55.61
80566;BME280;69915;54.862;10.730;2023-05-15T06:29:25;101087.38;;;17.64;58.05
80566;BME280;69915;54.862;10.730;2023-05-15T06:31:51;101090.03;;;17.35;58.54
80566;BME280;69915;54.862;10.730;2023-05-15T06:34:16;101085.94;;;17.41;57.38
80566;BME280;69915;54.862;10.730;2023-05-15T06:36:42;101092.56;;;16.94;58.59
80566;BME280;69915;54.862;10.730;2023-05-15T06:39:07;101093.03;;;16.61;60.79
80566;BME280;69915;54.862;10.730;2023-05-15T06:41:37;101089.81;;;16.59;60.48
80566;BME280;69915;54.862;10.730;2023-05-15T06:44:03;101089.81;;;16.59;60.45
80566;BME280;69915;54.862;10.730;2023-05-15T06:46:29;101083.91;;;16.52;59.84
80566;BME280;69915;54.862;10.730;2023-05-15T06:48:54;101074.22;;;16.63;60.18
80566;BME280;69915;54.862;10.730;2023-05-15T06:51:20;101086.56;;;16.57;59.97
80566;BME280;69915;54.862;10.730;2023-05-15T06:53:45;101078.38;;;16.35;59.70
80566;BME280;69915;54.862;10.730;2023-05-15T06:56:11;101070.09;;;16.26;59.85
80566;BME280;69915;54.862;10.730;2023-05-15T06:58:36;101065.28;;;16.66;60.54
80566;BME280;69915;54.862;10.730;2023-05-15T07:01:02;101061.59;;;17.26;59.72
80566;BME280;69915;54.862;10.730;2023-05-15T07:03:29;101061.38;;;17.48;60.42
80566;BME280;69915;54.862;10.730;2023-05-15T07:05:54;101053.94;;;17.78;56.30
80566;BME280;69915;54.862;10.730;2023-05-15T07:08:20;101047.13;;;18.46;55.34
80566;BME280;69915;54.862;10.730;2023-05-15T07:10:45;101050.09;;;18.82;53.73
80566;BME280;69915;54.862;10.730;2023-05-15T07:13:11;101046.38;;;18.78;50.29
80566;BME280;69915;54.862;10.730;2023-05-15T07:15:36;101049.47;;;18.97;51.86
80566;BME280;69915;54.862;10.730;2023-05-15T07:18:02;101033.19;;;19.89;49.58
80566;BME280;69915;54.862;10.730;2023-05-15T07:20:27;101037.50;;;20.51;49.49
80566;BME280;69915;54.862;10.730;2023-05-15T07:22:53;101035.53;;;21.23;48.94
80566;BME280;69915;54.862;10.730;2023-05-15T07:25:18;101028.31;;;21.34;46.13
80566;BME280;69915;54.862;10.730;2023-05-15T07:27:43;101035.63;;;21.10;48.28
80566;BME280;69915;54.862;10.730;2023-05-15T07:30:09;101025.16;;;22.17;46.35
80566;BME280;69915;54.862;10.730;2023-05-15T07:32:35;101029.38;;;22.46;43.33
80566;BME280;69915;54.862;10.730;2023-05-15T07:35:00;101022.06;;;21.71;44.57
80566;BME280;69915;54.862;10.730;2023-05-15T07:37:26;101026.41;;;21.22;45.47
80566;BME280;69915;54.862;10.730;2023-05-15T07:39:51;101031.25;;;20.54;48.37
80566;BME280;69915;54.862;10.730;2023-05-15T07:42:16;101028.44;;;20.14;49.63
80566;BME280;69915;54.862;10.730;2023-05-15T07:44:42;101029.69;;;20.29;52.22
80566;BME280;69915;54.862;10.730;2023-05-15T07:47:07;101026.28;;;20.75;49.47
80566;BME280;69915;54.862;10.730;2023-05-15T07:49:33;101021.53;;;20.48;49.90
80566;BME280;69915;54.862;10.730;2023-05-15T07:51:59;101029.34;;;19.94;51.44
80566;BME280;69915;54.862;10.730;2023-05-15T07:54:25;101024.94;;;20.17;50.51
80566;BME280;69915;54.862;10.730;2023-05-15T07:56:51;101032.44;;;20.41;48.87
80566;BME280;69915;54.862;10.730;2023-05-15T07:59:17;101026.13;;;21.11;47.03
80566;BME280;69915;54.862;10.730;2023-05-15T08:01:42;101015.84;;;21.28;47.47
80566;BME280;69915;54.862;10.730;2023-05-15T08:04:08;101011.47;;;21.93;44.81
80566;BME280;69915;54.862;10.730;2023-05-15T08:06:34;101019.09;;;21.96;44.77
80566;BME280;69915;54.862;10.730;2023-05-15T08:09:02;101002.22;;;22.23;46.59
80566;BME280;69915;54.862;10.730;2023-05-15T08:11:28;101006.88;;;22.73;43.74
80566;BME280;69915;54.862;10.730;2023-05-15T08:13:53;101000.28;;;23.46;44.17
80566;BME280;69915;54.862;10.730;2023-05-15T08:16:19;101009.91;;;22.84;44.28
80566;BME280;69915;54.862;10.730;2023-05-15T08:18:44;101000.63;;;22.99;46.62
80566;BME280;69915;54.862;10.730;2023-05-15T08:21:10;101008.63;;;22.62;42.31
80566;BME280;69915;54.862;10.730;2023-05-15T08:23:36;101017.41;;;21.91;44.65
80566;BME280;69915;54.862;10.730;2023-05-15T08:26:01;101009.47;;;22.09;44.87
80566;BME280;69915;54.862;10.730;2023-05-15T08:28:27;101019.91;;;21.96;46.00
80566;BME280;69915;54.862;10.730;2023-05-15T08:30:52;101000.72;;;21.60;47.62
80566;BME280;69915;54.862;10.730;2023-05-15T08:33:18;100995.66;;;22.89;46.74
80566;BME280;69915;54.862;10.730;2023-05-15T08:35:43;101001.06;;;22.63;42.17
80566;BME280;69915;54.862;10.730;2023-05-15T08:38:08;101002.09;;;22.16;44.45
80566;BME280;69915;54.862;10.730;2023-05-15T08:40:34;100998.84;;;21.64;45.89
80566;BME280;69915;54.862;10.730;2023-05-15T08:43:02;100989.81;;;21.36;46.86
80566;BME280;69915;54.862;10.730;2023-05-15T08:45:28;100997.31;;;21.20;45.03
80566;BME280;69915;54.862;10.730;2023-05-15T08:47:57;100993.06;;;20.94;46.40
80566;BME280;69915;54.862;10.730;2023-05-15T08:50:23;100997.69;;;20.75;46.92
80566;BME280;69915;54.862;10.730;2023-05-15T08:52:50;100986.59;;;20.90;47.78
80566;BME280;69915;54.862;10.730;2023-05-15T08:55:16;100978.63;;;20.61;47.91
80566;BME280;69915;54.862;10.730;2023-05-15T08:57:43;100983.59;;;20.68;48.93
80566;BME280;69915;54.862;10.730;2023-05-15T09:00:09;100975.50;;;20.90;48.30
80566;BME280;69915;54.862;10.730;2023-05-15T09:02:40;100977.03;;;21.03;51.95
80566;BME280;69915;54.862;10.730;2023-05-15T09:05:06;100971.03;;;22.53;50.17
80566;BME280;69915;54.862;10.730;2023-05-15T09:07:33;100965.25;;;23.75;46.07
80566;BME280;69915;54.862;10.730;2023-05-15T09:10:00;100960.28;;;24.51;45.09
80566;BME280;69915;54.862;10.730;2023-05-15T09:12:27;100949.50;;;25.26;44.99
80566;BME280;69915;54.862;10.730;2023-05-15T09:15:15;100951.09;;;24.50;40.47
80566;BME280;69915;54.862;10.730;2023-05-15T09:17:49;100957.25;;;23.47;42.53
80566;BME280;69915;54.862;10.730;2023-05-15T09:20:36;100964.59;;;23.59;45.96
80566;BME280;69915;54.862;10.730;2023-05-15T09:23:03;100963.25;;;23.26;47.19
80566;BME280;69915;54.862;10.730;2023-05-15T09:25:35;100952.06;;;24.65;46.05
80566;BME280;69915;54.862;10.730;2023-05-15T09:28:02;100938.56;;;25.55;43.05
80566;BME280;69915;54.862;10.730;2023-05-15T09:30:28;100942.41;;;25.94;40.52
80566;BME280;69915;54.862;10.730;2023-05-15T09:32:59;100941.13;;;25.77;36.95
80566;BME280;69915;54.862;10.730;2023-05-15T09:35:34;100943.53;;;24.87;44.03
80566;BME280;69915;54.862;10.730;2023-05-15T09:38:00;100947.78;;;25.15;38.40
80566;BME280;69915;54.862;10.730;2023-05-15T09:40:30;100948.69;;;24.49;43.44
80566;BME280;69915;54.862;10.730;2023-05-15T09:42:56;100955.88;;;22.92;44.19
80566;BME280;69915;54.862;10.730;2023-05-15T09:45:22;100945.59;;;23.42;44.59
80566;BME280;69915;54.862;10.730;2023-05-15T09:47:51;100932.13;;;24.33;44.66
80566;BME280;69915;54.862;10.730;2023-05-15T09:50:26;100937.72;;;25.03;39.84
80566;BME280;69915;54.862;10.730;2023-05-15T09:52:57;100935.50;;;25.81;41.30
80566;BME280;69915;54.862;10.730;2023-05-15T09:55:23;100924.63;;;26.51;38.87
80566;BME280;69915;54.862;10.730;2023-05-15T09:58:05;100925.09;;;26.68;38.71
80566;BME280;69915;54.862;10.730;2023-05-15T10:00:31;100920.66;;;26.60;39.80
80566;BME280;69915;54.862;10.730;2023-05-15T10:02:57;100930.78;;;26.96;39.28
80566;BME280;69915;54.862;10.730;2023-05-15T10:05:28;100916.75;;;27.38;38.47
80566;BME280;69915;54.862;10.730;2023-05-15T10:07:55;100920.31;;;27.78;38.79
80566;BME280;69915;54.862;10.730;2023-05-15T10:10:21;100926.78;;;27.39;37.90
80566;BME280;69915;54.862;10.730;2023-05-15T10:12:49;100925.88;;;28.06;37.60
80566;BME280;69915;54.862;10.730;2023-05-15T10:15:16;100918.44;;;28.47;35.39
80566;BME280;69915;54.862;10.730;2023-05-15T10:17:43;100920.09;;;28.38;35.10
80566;BME280;69915;54.862;10.730;2023-05-15T10:20:09;100910.31;;;28.63;33.56
80566;BME280;69915;54.862;10.730;2023-05-15T10:22:40;100915.72;;;28.33;33.67
80566;BME280;69915;54.862;10.730;2023-05-15T10:25:44;100911.09;;;27.74;33.88
80566;BME280;69915;54.862;10.730;2023-05-15T10:28:13;100915.94;;;27.34;33.29
80566;BME280;69915;54.862;10.730;2023-05-15T10:30:41;100907.88;;;27.79;34.04
80566;BME280;69915;54.862;10.730;2023-05-15T10:33:07;100905.44;;;27.81;30.85
80566;BME280;69915;54.862;10.730;2023-05-15T10:35:33;100906.19;;;28.13;33.78
80566;BME280;69915;54.862;10.730;2023-05-15T10:38:03;100892.66;;;28.59;31.50
80566;BME280;69915;54.862;10.730;2023-05-15T10:40:29;100897.00;;;28.75;34.55
80566;BME280;69915;54.862;10.730;2023-05-15T10:42:55;100896.34;;;28.53;33.53
80566;BME280;69915;54.862;10.730;2023-05-15T10:45:24;100881.69;;;28.83;34.56
80566;BME280;69915;54.862;10.730;2023-05-15T10:47:49;100891.94;;;29.51;33.62
80566;BME280;69915;54.862;10.730;2023-05-15T10:50:17;100879.81;;;29.17;35.31
80566;BME280;69915;54.862;10.730;2023-05-15T10:52:42;100888.16;;;28.80;33.42
80566;BME280;69915;54.862;10.730;2023-05-15T10:55:12;100878.91;;;29.27;34.44
80566;BME280;69915;54.862;10.730;2023-05-15T10:57:38;100870.22;;;29.52;33.13
80566;BME280;69915;54.862;10.730;2023-05-15T11:00:23;100881.00;;;29.60;33.85
80566;BME280;69915;54.862;10.730;2023-05-15T11:02:50;100874.59;;;29.56;33.49
80566;BME280;69915;54.862;10.730;2023-05-15T11:05:18;100876.38;;;30.14;32.11
80566;BME280;69915;54.862;10.730;2023-05-15T11:07:48;100869.34;;;30.56;31.62
80566;BME280;69915;54.862;10.730;2023-05-15T11:12:56;100870.53;;;-96.25;32.00
80566;BME280;69915;54.862;10.730;2023-05-15T11:15:22;100864.53;;;31.07;29.19
80566;BME280;69915;54.862;10.730;2023-05-15T11:18:06;100855.03;;;30.94;29.11
80566;BME280;69915;54.862;10.730;2023-05-15T11:23:26;100862.03;;;30.59;31.65
80566;BME280;69915;54.862;10.730;2023-05-15T11:25:55;100856.06;;;30.80;29.18
80566;BME280;69915;54.862;10.730;2023-05-15T11:28:22;100859.97;;;30.06;27.86
80566;BME280;69915;54.862;10.730;2023-05-15T11:30:50;100865.22;;;28.12;31.30
80566;BME280;69915;54.862;10.730;2023-05-15T11:33:18;100859.75;;;26.49;38.55
80566;BME280;69915;54.862;10.730;2023-05-15T11:35:45;100864.25;;;25.75;39.87
80566;BME280;69915;54.862;10.730;2023-05-15T11:38:16;100866.03;;;26.15;35.68
80566;BME280;69915;54.862;10.730;2023-05-15T11:41:01;100856.69;;;25.21;35.49
80566;BME280;69915;54.862;10.730;2023-05-15T11:43:29;100866.72;;;23.74;40.31
80566;BME280;69915;54.862;10.730;2023-05-15T11:45:58;100874.97;;;23.15;42.46
80566;BME280;69915;54.862;10.730;2023-05-15T11:48:33;100866.16;;;22.45;44.13
80566;BME280;69915;54.862;10.730;2023-05-15T11:51:02;100869.56;;;21.96;46.37
80566;BME280;69915;54.862;10.730;2023-05-15T11:53:29;100864.09;;;21.65;46.15
80566;BME280;69915;54.862;10.730;2023-05-15T11:55:55;100858.53;;;21.46;46.04
80566;BME280;69915;54.862;10.730;2023-05-15T11:58:22;100870.25;;;21.55;46.33
80566;BME280;69915;54.862;10.730;2023-05-15T12:00:49;100863.84;;;21.35;46.70
80566;BME280;69915;54.862;10.730;2023-05-15T12:03:25;100868.53;;;21.31;48.82
80566;BME280;69915;54.862;10.730;2023-05-15T12:05:51;100866.06;;;21.45;48.50
80566;BME280;69915;54.862;10.730;2023-05-15T12:08:18;100868.81;;;21.61;47.08
80566;BME280;69915;54.862;10.730;2023-05-15T12:10:46;100861.16;;;21.93;50.06
80566;BME280;69915;54.862;10.730;2023-05-15T12:13:12;100850.97;;;22.00;48.74
80566;BME280;69915;54.862;10.730;2023-05-15T12:15:39;100851.97;;;21.73;48.03
80566;BME280;69915;54.862;10.730;2023-05-15T12:18:06;100861.50;;;21.37;48.98
80566;BME280;69915;54.862;10.730;2023-05-15T12:20:36;100858.16;;;21.12;49.26
80566;BME280;69915;54.862;10.730;2023-05-15T12:25:46;100864.50;;;21.13;50.30
80566;BME280;69915;54.862;10.730;2023-05-15T12:28:14;100858.88;;;21.44;49.66
80566;BME280;69915;54.862;10.730;2023-05-15T12:30:40;100857.97;;;21.75;47.97
80566;BME280;69915;54.862;10.730;2023-05-15T12:33:08;100851.56;;;22.09;46.78
80566;BME280;69915;54.862;10.730;2023-05-15T12:35:41;100845.50;;;22.27;46.21
80566;BME280;69915;54.862;10.730;2023-05-15T12:38:07;100834.00;;;22.70;45.98
80566;BME280;69915;54.862;10.730;2023-05-15T12:40:34;100834.06;;;23.49;43.76
80566;BME280;69915;54.862;10.730;2023-05-15T12:43:04;100822.69;;;23.94;42.71
80566;BME280;69915;54.862;10.730;2023-05-15T12:45:30;100822.34;;;24.32;41.94
80566;BME280;69915;54.862;10.730;2023-05-15T12:48:01;100825.88;;;24.66;42.06
80566;BME280;69915;54.862;10.730;2023-05-15T12:50:27;100815.00;;;24.98;36.33
80566;BME280;69915;54.862;10.730;2023-05-15T12:53:03;100819.94;;;25.26;36.83
80566;BME280;69915;54.862;10.730;2023-05-15T12:55:34;100804.88;;;25.44;37.85
80566;BME280;69915;54.862;10.730;2023-05-15T12:58:00;100819.50;;;25.85;35.56
80566;BME280;69915;54.862;10.730;2023-05-15T13:00:28;100813.13;;;25.95;36.53
80566;BME280;69915;54.862;10.730;2023-05-15T13:02:55;100811.91;;;25.96;34.72